Time;durP1;ratioP1;P1;durP2;ratioP2;P2;SDS_P1;SDS_P2;PMS_P1;PMS_P2;Temp;Humidity;BMP_temperature;BMP_pressure;BME280_temperature;BME280_humidity;BME280_pressure;Samples;Min_cycle;Max_cycle;Signal;HPM_P1;HPM_P2
2023/01/23 00:00:55;;;;;;;0.10;0.10;;;;;;;;;;5131241;28;20193;-80
2023/01/23 00:03:22;;;;;;;0.13;0.13;;;;;;;;;;5131235;27;20547;-80
2023/01/23 00:05:56;;;;;;;0.00;0.00;;;;;;;;;;5131366;28;20237;-80
2023/01/23 00:08:23;;;;;;;0.20;0.20;;;;;;;;;;5131133;28;20214;-80
2023/01/23 00:10:49;;;;;;;0.00;0.00;;;;;;;;;;5130698;27;20213;-80
2023/01/23 00:13:17;;;;;;;0.33;0.30;;;;;;;;;;5130995;28;20200;-80
2023/01/23 00:15:44;;;;;;;0.10;0.10;;;;;;;;;;5130592;28;20731;-79
2023/01/23 00:18:12;;;;;;;0.30;0.30;;;;;;;;;;5130645;27;20701;-79
2023/01/23 00:20:38;;;;;;;2.13;0.20;;;;;;;;;;5130721;28;20192;-80
2023/01/23 00:23:05;;;;;;;0.00;0.00;;;;;;;;;;5131162;28;20240;-80
2023/01/23 00:25:33;;;;;;;0.20;0.20;;;;;;;;;;5130979;28;20292;-81
2023/01/23 00:28:00;;;;;;;0.40;0.27;;;;;;;;;;5130878;28;20200;-80
2023/01/23 00:30:26;;;;;;;1.30;0.77;;;;;;;;;;5130860;28;20197;-81
2023/01/23 00:32:53;;;;;;;0.33;0.33;;;;;;;;;;5130929;28;20212;-79
2023/01/23 00:35:22;;;;;;;0.20;0.20;;;;;;;;;;5130791;28;20233;-80
2023/01/23 00:37:48;;;;;;;0.40;0.40;;;;;;;;;;5131984;28;20232;-81
2023/01/23 00:40:15;;;;;;;0.10;0.10;;;;;;;;;;5133003;28;20288;-80
2023/01/23 00:42:41;;;;;;;0.90;0.90;;;;;;;;;;5132230;28;20544;-80
2023/01/23 00:45:08;;;;;;;0.67;0.67;;;;;;;;;;5133760;28;20803;-80
2023/01/23 00:47:35;;;;;;;0.30;0.30;;;;;;;;;;5133124;28;20224;-80
2023/01/23 00:50:01;;;;;;;0.87;0.63;;;;;;;;;;5132429;28;20196;-81
2023/01/23 00:52:29;;;;;;;0.37;0.37;;;;;;;;;;5131232;28;20196;-79
2023/01/23 00:54:56;;;;;;;0.20;0.13;;;;;;;;;;5130772;28;20248;-80
2023/01/23 00:57:23;;;;;;;0.13;0.13;;;;;;;;;;5130925;28;20284;-79
2023/01/23 00:59:49;;;;;;;0.50;0.50;;;;;;;;;;5130865;28;20245;-80
2023/01/23 01:02:16;;;;;;;0.20;0.20;;;;;;;;;;5130605;28;20625;-80
2023/01/23 01:04:43;;;;;;;0.00;0.00;;;;;;;;;;5130528;28;20193;-80
2023/01/23 01:07:10;;;;;;;0.10;0.10;;;;;;;;;;5130610;28;20185;-80
2023/01/23 01:09:38;;;;;;;0.20;0.20;;;;;;;;;;5132836;27;20227;-80
2023/01/23 01:12:05;;;;;;;0.57;0.57;;;;;;;;;;5134077;27;20624;-80
2023/01/23 01:14:32;;;;;;;0.20;0.20;;;;;;;;;;5134089;27;20221;-80
2023/01/23 01:16:59;;;;;;;3.73;0.33;;;;;;;;;;5134357;27;20221;-80
2023/01/23 01:19:27;;;;;;;0.10;0.10;;;;;;;;;;5134082;27;20198;-80
2023/01/23 01:21:53;;;;;;;0.10;0.10;;;;;;;;;;5134055;27;20200;-80
2023/01/23 01:24:20;;;;;;;0.10;0.10;;;;;;;;;;5133847;27;20199;-80
2023/01/23 01:26:48;;;;;;;0.20;0.20;;;;;;;;;;5134009;27;20200;-80
2023/01/23 01:29:14;;;;;;;0.73;0.73;;;;;;;;;;5134091;27;20234;-79
2023/01/23 01:31:41;;;;;;;0.27;0.27;;;;;;;;;;5134146;27;20220;-79
2023/01/23 01:34:08;;;;;;;0.10;0.10;;;;;;;;;;5133801;27;20228;-80
2023/01/23 01:36:35;;;;;;;0.50;0.17;;;;;;;;;;5133585;27;20218;-81
2023/01/23 01:39:02;;;;;;;0.40;0.30;;;;;;;;;;5133507;27;20276;-80
2023/01/23 01:41:29;;;;;;;0.20;0.20;;;;;;;;;;5133841;27;20257;-81
2023/01/23 01:43:58;;;;;;;3.50;1.33;;;;;;;;;;5133321;27;20244;-78
2023/01/23 01:46:26;;;;;;;0.10;0.10;;;;;;;;;;5133623;27;20673;-78
2023/01/23 01:49:01;;;;;;;0.10;0.10;;;;;;;;;;5133490;27;20204;-80
2023/01/23 01:51:30;;;;;;;0.00;0.00;;;;;;;;;;5133478;27;20240;-80
2023/01/23 01:54:01;;;;;;;0.17;0.17;;;;;;;;;;5133507;27;20288;-80
2023/01/23 01:56:29;;;;;;;0.43;0.10;;;;;;;;;;5133743;27;20193;-81
2023/01/23 01:58:58;;;;;;;0.50;0.50;;;;;;;;;;5133460;27;20222;-81
2023/01/23 02:01:25;;;;;;;0.00;0.00;;;;;;;;;;5133376;27;20197;-81
2023/01/23 02:03:53;;;;;;;0.47;0.23;;;;;;;;;;5133480;27;20242;-79
2023/01/23 02:06:20;;;;;;;0.30;0.30;;;;;;;;;;5133413;27;20269;-80
2023/01/23 02:08:50;;;;;;;0.83;0.73;;;;;;;;;;5133018;27;20201;-80
2023/01/23 02:11:17;;;;;;;0.00;0.00;;;;;;;;;;5133813;27;20618;-80
2023/01/23 02:13:44;;;;;;;0.30;0.30;;;;;;;;;;5132835;27;20200;-80
2023/01/23 02:16:14;;;;;;;0.00;0.00;;;;;;;;;;5133108;27;20319;-79
2023/01/23 02:18:43;;;;;;;0.20;0.20;;;;;;;;;;5132991;27;20219;-80
2023/01/23 02:21:10;;;;;;;0.10;0.03;;;;;;;;;;5133428;27;20196;-80
2023/01/23 02:23:42;;;;;;;0.10;0.10;;;;;;;;;;5133044;27;20207;-79
2023/01/23 02:26:13;;;;;;;0.87;0.60;;;;;;;;;;5133006;27;20262;-79
2023/01/23 02:28:40;;;;;;;0.20;0.20;;;;;;;;;;5133588;27;20630;-80
2023/01/23 02:31:07;;;;;;;0.40;0.20;;;;;;;;;;5133070;27;20296;-81
2023/01/23 02:33:47;;;;;;;0.43;0.20;;;;;;;;;;5132914;27;20193;-78
2023/01/23 02:36:14;;;;;;;0.10;0.10;;;;;;;;;;5132389;27;20203;-80
2023/01/23 02:38:53;;;;;;;1.20;0.33;;;;;;;;;;5132483;27;20206;-80
2023/01/23 02:41:24;;;;;;;0.13;0.13;;;;;;;;;;5132646;27;20249;-80
2023/01/23 02:43:51;;;;;;;1.23;0.67;;;;;;;;;;5132811;27;20712;-80
2023/01/23 02:46:19;;;;;;;0.03;0.03;;;;;;;;;;5132955;27;20193;-80
2023/01/23 02:48:46;;;;;;;1.30;1.30;;;;;;;;;;5132896;27;20634;-79
2023/01/23 02:51:13;;;;;;;1.23;0.37;;;;;;;;;;5133318;27;20275;-78
2023/01/23 02:53:41;;;;;;;0.00;0.00;;;;;;;;;;5132663;27;20200;-79
2023/01/23 02:56:08;;;;;;;0.10;0.10;;;;;;;;;;5132887;27;20228;-80
2023/01/23 03:01:20;;;;;;;0.50;0.47;;;;;;;;;;5132947;27;20293;-80
2023/01/23 03:03:50;;;;;;;0.00;0.00;;;;;;;;;;5132051;27;20196;-79
2023/01/23 03:06:16;;;;;;;0.10;0.10;;;;;;;;;;5132306;27;20252;-79
2023/01/23 03:08:48;;;;;;;0.07;0.07;;;;;;;;;;5131929;27;20211;-81
2023/01/23 03:11:16;;;;;;;1.03;0.20;;;;;;;;;;5131852;27;20291;-79
2023/01/23 03:13:44;;;;;;;1.80;0.40;;;;;;;;;;5132051;27;20197;-80
2023/01/23 03:16:10;;;;;;;2.80;0.30;;;;;;;;;;5131848;27;20220;-79
2023/01/23 03:18:37;;;;;;;5.50;0.50;;;;;;;;;;5131986;27;20196;-79
2023/01/23 03:21:05;;;;;;;0.20;0.20;;;;;;;;;;5132224;27;20260;-80
2023/01/23 03:23:32;;;;;;;0.10;0.10;;;;;;;;;;5132343;27;20589;-80
2023/01/23 03:25:58;;;;;;;0.10;0.10;;;;;;;;;;5132020;27;20200;-80
2023/01/23 03:31:11;;;;;;;0.00;0.00;;;;;;;;;;5131504;27;20573;-80
2023/01/23 03:33:41;;;;;;;0.30;0.30;;;;;;;;;;5131909;27;20710;-79
2023/01/23 03:36:08;;;;;;;0.00;0.00;;;;;;;;;;5132331;27;20249;-81
2023/01/23 03:38:35;;;;;;;0.00;0.00;;;;;;;;;;5133249;27;20193;-81
2023/01/23 03:43:46;;;;;;;0.10;0.10;;;;;;;;;;5131324;27;20230;-80
2023/01/23 03:46:14;;;;;;;0.10;0.10;;;;;;;;;;5131589;27;20200;-79
2023/01/23 03:48:40;;;;;;;0.00;0.00;;;;;;;;;;5131749;27;20209;-81
2023/01/23 03:51:07;;;;;;;0.67;0.67;;;;;;;;;;5130995;27;20216;-81
2023/01/23 03:53:34;;;;;;;0.23;0.23;;;;;;;;;;5131145;27;20204;-80
2023/01/23 03:56:00;;;;;;;0.10;0.10;;;;;;;;;;5131111;28;20232;-80
2023/01/23 03:58:29;;;;;;;0.00;0.00;;;;;;;;;;5132312;27;20193;-80
2023/01/23 04:00:56;;;;;;;0.10;0.10;;;;;;;;;;5132294;28;20624;-80
2023/01/23 04:03:24;;;;;;;0.00;0.00;;;;;;;;;;5131832;28;20192;-79
2023/01/23 04:05:55;;;;;;;0.00;0.00;;;;;;;;;;5132200;28;20257;-81
2023/01/23 04:08:22;;;;;;;0.10;0.10;;;;;;;;;;5132027;28;20185;-80
2023/01/23 04:10:49;;;;;;;0.10;0.10;;;;;;;;;;5130959;27;20224;-81
2023/01/23 04:13:16;;;;;;;2.27;0.67;;;;;;;;;;5131367;28;20196;-80
2023/01/23 04:15:42;;;;;;;0.20;0.20;;;;;;;;;;5130878;28;20235;-79
2023/01/23 04:18:09;;;;;;;0.20;0.20;;;;;;;;;;5129053;28;20239;-81
2023/01/23 04:20:37;;;;;;;0.63;0.63;;;;;;;;;;5131136;28;20847;-81
2023/01/23 04:23:03;;;;;;;0.37;0.20;;;;;;;;;;5131909;28;20604;-81
2023/01/23 04:25:30;;;;;;;0.30;0.30;;;;;;;;;;5131240;27;20257;-80
2023/01/23 04:27:57;;;;;;;0.73;0.33;;;;;;;;;;5131442;28;20688;-79
2023/01/23 04:30:23;;;;;;;0.00;0.00;;;;;;;;;;5131285;28;20262;-80
2023/01/23 04:32:50;;;;;;;0.13;0.13;;;;;;;;;;5131080;28;20189;-80
2023/01/23 04:35:17;;;;;;;0.30;0.30;;;;;;;;;;5130233;27;20473;-79
2023/01/23 04:37:45;;;;;;;0.40;0.40;;;;;;;;;;5130518;28;20191;-80
2023/01/23 04:40:12;;;;;;;0.97;0.97;;;;;;;;;;5130555;28;20196;-79
2023/01/23 04:42:38;;;;;;;0.20;0.20;;;;;;;;;;5130739;27;20205;-80
2023/01/23 04:45:06;;;;;;;0.23;0.23;;;;;;;;;;5133987;27;20686;-81
2023/01/23 04:47:32;;;;;;;0.53;0.13;;;;;;;;;;5134492;27;20703;-79
2023/01/23 04:49:59;;;;;;;1.07;0.30;;;;;;;;;;5134865;27;20193;-80
2023/01/23 04:52:25;;;;;;;0.30;0.30;;;;;;;;;;5134816;27;20197;-80
2023/01/23 04:54:53;;;;;;;0.47;0.47;;;;;;;;;;5135163;27;20251;-80
2023/01/23 04:57:20;;;;;;;0.10;0.10;;;;;;;;;;5134125;27;20565;-80
2023/01/23 04:59:46;;;;;;;0.00;0.00;;;;;;;;;;5134572;27;20564;-80
2023/01/23 05:02:13;;;;;;;0.27;0.27;;;;;;;;;;5134752;27;20197;-80
2023/01/23 05:04:40;;;;;;;0.17;0.17;;;;;;;;;;5134330;27;20200;-80
2023/01/23 05:07:08;;;;;;;0.27;0.27;;;;;;;;;;5134235;27;20704;-81
2023/01/23 05:09:34;;;;;;;0.53;0.53;;;;;;;;;;5134120;27;20209;-79
2023/01/23 05:12:02;;;;;;;0.60;0.38;;;;;;;;;;5132853;27;20436;-80
2023/01/23 05:14:29;;;;;;;0.30;0.30;;;;;;;;;;5134085;27;20663;-80
2023/01/23 05:16:56;;;;;;;0.30;0.30;;;;;;;;;;5133460;27;20224;-81
2023/01/23 05:19:22;;;;;;;0.63;0.63;;;;;;;;;;5133744;27;20204;-80
2023/01/23 05:21:49;;;;;;;0.10;0.10;;;;;;;;;;5134521;27;20651;-80
2023/01/23 05:24:15;;;;;;;3.07;0.40;;;;;;;;;;5134830;27;20192;-82
2023/01/23 05:26:43;;;;;;;1.47;0.50;;;;;;;;;;5134836;27;20523;-81
2023/01/23 05:29:11;;;;;;;0.17;0.17;;;;;;;;;;5133737;27;20205;-81
2023/01/23 05:31:37;;;;;;;0.33;0.33;;;;;;;;;;5133590;27;20197;-81
2023/01/23 05:34:04;;;;;;;0.03;0.03;;;;;;;;;;5133824;27;20262;-81
2023/01/23 05:36:31;;;;;;;0.30;0.30;;;;;;;;;;5133171;27;20220;-80
2023/01/23 05:38:57;;;;;;;0.10;0.10;;;;;;;;;;5133677;27;20196;-80
2023/01/23 05:41:24;;;;;;;0.07;0.07;;;;;;;;;;5134122;27;20248;-80
2023/01/23 05:43:51;;;;;;;0.80;0.80;;;;;;;;;;5134629;27;20239;-81
2023/01/23 05:46:20;;;;;;;0.67;0.47;;;;;;;;;;5134551;27;20204;-81
2023/01/23 05:48:48;;;;;;;1.50;0.20;;;;;;;;;;5133949;27;20205;-80
2023/01/23 05:51:15;;;;;;;0.43;0.43;;;;;;;;;;5134158;27;20223;-79
2023/01/23 05:53:41;;;;;;;0.30;0.30;;;;;;;;;;5135225;27;20591;-81
2023/01/23 05:56:08;;;;;;;0.50;0.30;;;;;;;;;;5134760;27;20232;-81
2023/01/23 05:58:35;;;;;;;0.93;0.30;;;;;;;;;;5133503;27;20201;-81
2023/01/23 06:01:02;;;;;;;0.13;0.13;;;;;;;;;;5133609;27;20205;-80
2023/01/23 06:03:30;;;;;;;0.27;0.27;;;;;;;;;;5133988;27;20204;-80
2023/01/23 06:05:56;;;;;;;0.10;0.10;;;;;;;;;;5133403;27;20273;-79
2023/01/23 06:08:23;;;;;;;0.37;0.30;;;;;;;;;;5133815;27;20257;-80
2023/01/23 06:10:50;;;;;;;0.60;0.60;;;;;;;;;;5133523;27;20224;-81
2023/01/23 06:13:17;;;;;;;0.07;0.07;;;;;;;;;;5133361;27;20200;-81
2023/01/23 06:15:44;;;;;;;0.43;0.43;;;;;;;;;;5133285;27;20224;-82
2023/01/23 06:18:10;;;;;;;0.43;0.40;;;;;;;;;;5133577;27;20200;-80
2023/01/23 06:20:38;;;;;;;1.80;0.37;;;;;;;;;;5133078;27;20208;-80
2023/01/23 06:23:05;;;;;;;0.10;0.10;;;;;;;;;;5133585;27;20200;-81
2023/01/23 06:25:31;;;;;;;0.00;0.00;;;;;;;;;;5134331;27;20192;-81
2023/01/23 06:27:58;;;;;;;0.10;0.10;;;;;;;;;;5133366;27;20200;-81
2023/01/23 06:30:24;;;;;;;0.10;0.10;;;;;;;;;;5133401;27;20249;-81
2023/01/23 06:32:51;;;;;;;1.10;0.33;;;;;;;;;;5132994;27;20197;-80
2023/01/23 06:35:19;;;;;;;0.00;0.00;;;;;;;;;;5132688;27;20226;-79
2023/01/23 06:37:47;;;;;;;0.33;0.20;;;;;;;;;;5133157;27;20192;-81
2023/01/23 06:40:13;;;;;;;0.23;0.23;;;;;;;;;;5132700;27;20246;-81
2023/01/23 06:42:40;;;;;;;0.00;0.00;;;;;;;;;;5132784;27;20204;-80
2023/01/23 06:45:08;;;;;;;0.60;0.35;;;;;;;;;;5132038;27;20445;-80
2023/01/23 06:47:35;;;;;;;0.30;0.17;;;;;;;;;;5133127;27;20361;-80
2023/01/23 06:50:02;;;;;;;1.03;0.37;;;;;;;;;;5133139;27;20196;-80
2023/01/23 06:52:29;;;;;;;0.30;0.20;;;;;;;;;;5132953;27;20218;-79
2023/01/23 06:54:58;;;;;;;0.40;0.40;;;;;;;;;;5132975;27;20317;-80
2023/01/23 06:57:25;;;;;;;0.30;0.30;;;;;;;;;;5133105;27;20239;-81
2023/01/23 06:59:52;;;;;;;0.10;0.10;;;;;;;;;;5132697;27;20208;-80
2023/01/23 07:02:19;;;;;;;0.30;0.30;;;;;;;;;;5132288;27;20200;-81
2023/01/23 07:04:45;;;;;;;1.07;0.30;;;;;;;;;;5132504;27;20725;-80
2023/01/23 07:07:12;;;;;;;0.20;0.20;;;;;;;;;;5131673;27;20241;-80
2023/01/23 07:09:39;;;;;;;0.50;0.37;;;;;;;;;;5132538;27;20219;-79
2023/01/23 07:12:08;;;;;;;0.10;0.10;;;;;;;;;;5132215;27;20276;-81
2023/01/23 07:14:34;;;;;;;0.20;0.20;;;;;;;;;;5133994;27;20231;-81
2023/01/23 07:17:02;;;;;;;0.33;0.33;;;;;;;;;;5133534;27;20239;-82
2023/01/23 07:19:29;;;;;;;0.83;0.83;;;;;;;;;;5135851;27;20293;-80
2023/01/23 07:21:56;;;;;;;0.80;0.50;;;;;;;;;;5132734;27;20200;-80
2023/01/23 07:24:22;;;;;;;2.33;1.13;;;;;;;;;;5132766;27;20193;-79
2023/01/23 07:26:49;;;;;;;3.50;1.13;;;;;;;;;;5132754;27;20279;-80
2023/01/23 07:29:17;;;;;;;0.63;0.63;;;;;;;;;;5132749;27;20220;-80
2023/01/23 07:31:44;;;;;;;0.50;0.50;;;;;;;;;;5132204;27;20196;-81
2023/01/23 07:34:10;;;;;;;2.53;0.30;;;;;;;;;;5132145;27;20197;-82
2023/01/23 07:36:37;;;;;;;1.10;0.90;;;;;;;;;;5132149;27;20224;-79
2023/01/23 07:39:04;;;;;;;1.43;0.93;;;;;;;;;;5131990;27;20265;-79
2023/01/23 07:41:30;;;;;;;3.60;1.40;;;;;;;;;;5132160;27;20205;-82
2023/01/23 07:43:57;;;;;;;2.67;1.00;;;;;;;;;;5131701;27;20698;-81
2023/01/23 07:46:25;;;;;;;6.30;0.50;;;;;;;;;;5131726;27;20200;-82
2023/01/23 07:48:52;;;;;;;0.30;0.30;;;;;;;;;;5131812;27;20287;-80
2023/01/23 07:51:18;;;;;;;0.40;0.40;;;;;;;;;;5131640;27;20677;-80
2023/01/23 07:53:45;;;;;;;4.70;0.57;;;;;;;;;;5131827;27;20192;-82
2023/01/23 07:56:12;;;;;;;0.20;0.20;;;;;;;;;;5132242;27;20284;-80
2023/01/23 07:58:39;;;;;;;1.80;0.77;;;;;;;;;;5131987;28;20196;-80
2023/01/23 08:01:09;;;;;;;1.13;1.13;;;;;;;;;;5131925;28;20207;-81
2023/01/23 08:03:37;;;;;;;0.30;0.30;;;;;;;;;;5131784;28;20284;-81
2023/01/23 08:06:04;;;;;;;0.70;0.70;;;;;;;;;;5131670;28;20237;-80
2023/01/23 08:08:31;;;;;;;0.20;0.20;;;;;;;;;;5131521;28;20205;-80
2023/01/23 08:10:58;;;;;;;0.80;0.80;;;;;;;;;;5131241;28;20704;-80
2023/01/23 08:13:25;;;;;;;0.13;0.13;;;;;;;;;;5131875;27;20196;-81
2023/01/23 08:15:53;;;;;;;0.30;0.30;;;;;;;;;;5131404;28;20235;-80
2023/01/23 08:18:19;;;;;;;3.43;0.37;;;;;;;;;;5134062;27;20257;-80
2023/01/23 08:20:54;;;;;;;0.40;0.40;;;;;;;;;;5135778;27;20556;-80
2023/01/23 08:23:20;;;;;;;0.30;0.30;;;;;;;;;;5135560;27;20385;-80
2023/01/23 08:25:47;;;;;;;0.30;0.27;;;;;;;;;;5135645;27;20200;-80
2023/01/23 08:28:14;;;;;;;0.23;0.23;;;;;;;;;;5135704;27;20276;-81
2023/01/23 08:30:41;;;;;;;0.47;0.47;;;;;;;;;;5135419;27;20626;-81
2023/01/23 08:33:08;;;;;;;0.03;0.03;;;;;;;;;;5135300;27;20200;-80
2023/01/23 08:35:34;;;;;;;0.10;0.10;;;;;;;;;;5135249;27;20673;-80
2023/01/23 08:38:02;;;;;;;0.07;0.07;;;;;;;;;;5134688;27;20227;-81
2023/01/23 08:40:29;;;;;;;0.80;0.40;;;;;;;;;;5134506;27;20447;-80
2023/01/23 08:42:56;;;;;;;0.60;0.60;;;;;;;;;;5135185;27;20192;-81
2023/01/23 08:45:24;;;;;;;1.80;0.43;;;;;;;;;;5134571;27;20697;-79
2023/01/23 08:47:51;;;;;;;1.10;1.03;;;;;;;;;;5134980;27;20212;-79
2023/01/23 08:50:18;;;;;;;0.83;0.83;;;;;;;;;;5134619;27;20200;-80
2023/01/23 08:52:45;;;;;;;0.87;0.87;;;;;;;;;;5135075;27;20389;-80
2023/01/23 08:55:13;;;;;;;0.00;0.00;;;;;;;;;;5134623;27;20197;-81
2023/01/23 08:57:40;;;;;;;0.53;0.53;;;;;;;;;;5134803;27;20344;-80
2023/01/23 09:00:07;;;;;;;2.40;0.37;;;;;;;;;;5134881;27;20224;-81
2023/01/23 09:02:33;;;;;;;0.57;0.47;;;;;;;;;;5134612;27;20669;-81
2023/01/23 09:05:01;;;;;;;1.20;1.20;;;;;;;;;;5134284;27;20200;-80
2023/01/23 09:07:27;;;;;;;0.00;0.00;;;;;;;;;;5134272;27;20275;-80
2023/01/23 09:09:54;;;;;;;0.10;0.10;;;;;;;;;;5134329;27;20269;-80
2023/01/23 09:12:22;;;;;;;4.43;0.50;;;;;;;;;;5134337;27;20324;-80
2023/01/23 09:14:49;;;;;;;0.20;0.20;;;;;;;;;;5134592;27;20228;-81
2023/01/23 09:17:15;;;;;;;0.50;0.50;;;;;;;;;;5134563;27;20244;-81
2023/01/23 09:19:42;;;;;;;0.20;0.20;;;;;;;;;;5134159;27;20668;-81
2023/01/23 09:22:09;;;;;;;3.20;0.40;;;;;;;;;;5134295;27;20275;-81
2023/01/23 09:24:35;;;;;;;0.97;0.63;;;;;;;;;;5134153;27;20204;-80
2023/01/23 09:27:02;;;;;;;0.10;0.10;;;;;;;;;;5133973;27;20189;-81
2023/01/23 09:29:31;;;;;;;0.93;0.30;;;;;;;;;;5133560;27;20227;-81
2023/01/23 09:31:58;;;;;;;3.20;0.77;;;;;;;;;;5134105;27;20673;-81
2023/01/23 09:34:25;;;;;;;0.23;0.23;;;;;;;;;;5134444;27;20192;-81
2023/01/23 09:36:52;;;;;;;0.40;0.40;;;;;;;;;;5133968;27;20223;-80
2023/01/23 09:39:19;;;;;;;0.30;0.30;;;;;;;;;;5134537;27;20196;-81
2023/01/23 09:41:46;;;;;;;0.00;0.00;;;;;;;;;;5135550;27;20200;-81
2023/01/23 09:44:15;;;;;;;0.17;0.10;;;;;;;;;;5134426;27;20236;-80
2023/01/23 09:46:46;;;;;;;2.20;0.43;;;;;;;;;;5133899;27;20201;-81
2023/01/23 09:49:17;;;;;;;1.07;1.07;;;;;;;;;;5133877;27;20193;-82
2023/01/23 09:51:49;;;;;;;0.53;0.53;;;;;;;;;;5133949;27;20192;-81
2023/01/23 09:54:28;;;;;;;1.27;1.03;;;;;;;;;;5133293;27;20216;-80
2023/01/23 09:56:56;;;;;;;0.13;0.13;;;;;;;;;;5133497;27;20235;-81
2023/01/23 09:59:27;;;;;;;0.50;0.50;;;;;;;;;;5133743;27;20193;-80
2023/01/23 10:02:02;;;;;;;0.20;0.20;;;;;;;;;;5133255;27;20261;-81
2023/01/23 10:04:31;;;;;;;0.37;0.37;;;;;;;;;;5133487;27;20211;-81
2023/01/23 10:07:09;;;;;;;1.17;1.07;;;;;;;;;;5133472;27;20193;-81
2023/01/23 10:09:44;;;;;;;0.20;0.20;;;;;;;;;;5133560;27;20220;-81
2023/01/23 10:12:15;;;;;;;0.33;0.33;;;;;;;;;;5133323;27;20204;-80
2023/01/23 10:15:02;;;;;;;0.10;0.10;;;;;;;;;;5133380;27;20241;-81
2023/01/23 10:17:36;;;;;;;0.83;0.83;;;;;;;;;;5132026;27;20499;-80
2023/01/23 10:20:13;;;;;;;0.13;0.13;;;;;;;;;;5133074;27;20202;-81
2023/01/23 10:22:46;;;;;;;0.00;0.00;;;;;;;;;;5133446;27;20638;-81
2023/01/23 10:25:14;;;;;;;0.60;0.60;;;;;;;;;;5134131;27;20196;-80
2023/01/23 10:27:42;;;;;;;1.10;0.80;;;;;;;;;;5134316;27;20630;-80
2023/01/23 10:30:17;;;;;;;0.43;0.43;;;;;;;;;;5133643;27;20566;-81
2023/01/23 10:32:48;;;;;;;1.47;0.70;;;;;;;;;;5133292;27;20235;-81
2023/01/23 10:35:18;;;;;;;0.10;0.10;;;;;;;;;;5133414;27;20185;-79
2023/01/23 10:37:48;;;;;;;0.10;0.10;;;;;;;;;;5133849;27;20224;-81
2023/01/23 10:40:15;;;;;;;0.30;0.30;;;;;;;;;;5134078;27;20195;-80
2023/01/23 10:42:43;;;;;;;0.60;0.23;;;;;;;;;;5132962;27;20196;-80
2023/01/23 10:45:14;;;;;;;1.13;1.03;;;;;;;;;;5132609;27;20277;-81
2023/01/23 10:47:43;;;;;;;0.20;0.20;;;;;;;;;;5133108;27;20189;-80
2023/01/23 10:50:12;;;;;;;2.63;0.47;;;;;;;;;;5132739;27;20726;-80
2023/01/23 10:52:42;;;;;;;2.00;0.40;;;;;;;;;;5132674;27;20197;-80
2023/01/23 10:55:24;;;;;;;1.70;1.60;;;;;;;;;;5132711;27;20220;-79
2023/01/23 10:57:57;;;;;;;0.53;0.53;;;;;;;;;;5132803;27;20335;-79
2023/01/23 11:00:26;;;;;;;0.10;0.10;;;;;;;;;;5132684;27;20197;-80
2023/01/23 11:02:53;;;;;;;0.63;0.63;;;;;;;;;;5132586;27;20197;-80
2023/01/23 11:05:36;;;;;;;0.87;0.87;;;;;;;;;;5131092;27;21020;-81
2023/01/23 11:08:02;;;;;;;0.80;0.65;;;;;;;;;;5131932;27;20502;-80
2023/01/23 11:10:29;;;;;;;0.73;0.73;;;;;;;;;;5132373;27;20216;-79
2023/01/23 11:12:57;;;;;;;0.10;0.10;;;;;;;;;;5132299;27;20189;-81
2023/01/23 11:15:24;;;;;;;0.60;0.60;;;;;;;;;;5132185;27;20223;-80
2023/01/23 11:17:52;;;;;;;0.67;0.67;;;;;;;;;;5132325;27;20230;-81
2023/01/23 11:20:23;;;;;;;3.00;0.60;;;;;;;;;;5131920;27;20197;-79
2023/01/23 11:23:02;;;;;;;0.40;0.40;;;;;;;;;;5132368;27;20197;-80
2023/01/23 11:25:30;;;;;;;0.67;0.67;;;;;;;;;;5131062;27;20549;-81
2023/01/23 11:27:58;;;;;;;1.10;1.00;;;;;;;;;;5131971;27;20283;-78
2023/01/23 11:30:29;;;;;;;0.30;0.30;;;;;;;;;;5131698;27;20192;-80
2023/01/23 11:32:58;;;;;;;2.10;0.63;;;;;;;;;;5132229;27;20188;-80
2023/01/23 11:35:29;;;;;;;0.77;0.77;;;;;;;;;;5133417;27;20188;-80
2023/01/23 11:37:57;;;;;;;0.53;0.53;;;;;;;;;;5131571;27;20219;-79
2023/01/23 11:40:25;;;;;;;1.73;0.83;;;;;;;;;;5131999;27;20196;-80
2023/01/23 11:42:52;;;;;;;0.30;0.30;;;;;;;;;;5131979;27;20295;-80
2023/01/23 11:45:28;;;;;;;0.33;0.33;;;;;;;;;;5131605;27;20614;-80
2023/01/23 11:48:04;;;;;;;4.60;0.90;;;;;;;;;;5131583;27;20654;-80
2023/01/23 11:50:36;;;;;;;0.73;0.73;;;;;;;;;;5131914;27;20275;-80
2023/01/23 11:53:06;;;;;;;0.80;0.63;;;;;;;;;;5131381;27;20192;-79
2023/01/23 11:55:47;;;;;;;0.30;0.30;;;;;;;;;;5132093;27;20232;-81
2023/01/23 11:58:22;;;;;;;0.90;0.83;;;;;;;;;;5127943;27;20224;-81
2023/01/23 12:00:53;;;;;;;2.70;0.73;;;;;;;;;;5131348;28;20204;-80
2023/01/23 12:03:49;;;;;;;2.03;1.93;;;;;;;;;;5131515;28;20200;-79
2023/01/23 12:06:32;;;;;;;0.93;0.60;;;;;;;;;;5131261;28;20196;-80
2023/01/23 12:09:05;;;;;;;0.83;0.83;;;;;;;;;;5131985;28;20224;-79
2023/01/23 12:11:37;;;;;;;0.77;0.77;;;;;;;;;;5131695;28;20197;-80
2023/01/23 12:14:11;;;;;;;1.53;1.03;;;;;;;;;;5131475;27;20196;-80
2023/01/23 12:16:47;;;;;;;1.07;1.07;;;;;;;;;;5131290;28;20200;-81
2023/01/23 12:19:21;;;;;;;0.30;0.30;;;;;;;;;;5131199;28;20200;-80
2023/01/23 12:21:53;;;;;;;0.83;0.53;;;;;;;;;;5131572;28;20184;-81
2023/01/23 12:24:27;;;;;;;0.10;0.10;;;;;;;;;;5131372;28;20203;-80
2023/01/23 12:26:57;;;;;;;3.20;1.47;;;;;;;;;;5130957;28;20197;-80
2023/01/23 12:29:42;;;;;;;0.77;0.63;;;;;;;;;;5131236;28;20197;-80
2023/01/23 12:32:25;;;;;;;0.53;0.37;;;;;;;;;;5089664;27;20200;-79
2023/01/23 12:34:58;;;;;;;0.30;0.30;;;;;;;;;;5111131;27;20225;-80
2023/01/23 12:37:34;;;;;;;1.37;0.90;;;;;;;;;;5109538;28;20744;-78
2023/01/23 12:40:06;;;;;;;1.43;0.20;;;;;;;;;;5108675;28;20613;-81
2023/01/23 12:42:40;;;;;;;2.33;0.70;;;;;;;;;;5113079;28;20485;-80
2023/01/23 12:45:13;;;;;;;0.50;0.50;;;;;;;;;;5110174;28;20241;-80
2023/01/23 12:47:43;;;;;;;0.67;0.53;;;;;;;;;;5109662;28;20221;-80
2023/01/23 12:50:15;;;;;;;4.00;0.80;;;;;;;;;;5115254;28;20700;-80
2023/01/23 12:52:46;;;;;;;1.40;0.93;;;;;;;;;;5128139;28;20233;-81
2023/01/23 12:55:18;;;;;;;0.50;0.50;;;;;;;;;;5128444;27;20307;-80
2023/01/23 12:57:50;;;;;;;0.60;0.60;;;;;;;;;;5119669;28;20239;-79
2023/01/23 13:00:22;;;;;;;1.63;0.37;;;;;;;;;;5114924;28;20232;-80
2023/01/23 13:02:53;;;;;;;0.33;0.33;;;;;;;;;;5129225;28;20212;-81
2023/01/23 13:05:22;;;;;;;0.73;0.67;;;;;;;;;;5129589;27;20224;-80
2023/01/23 13:07:53;;;;;;;0.10;0.10;;;;;;;;;;5133346;27;20257;-80
2023/01/23 13:13:19;;;;;;;0.63;0.30;;;;;;;;;;5132244;27;20301;-81
2023/01/23 13:16:01;;;;;;;0.83;0.83;;;;;;;;;;5131973;27;20231;-80
2023/01/23 13:21:59;;;;;;;1.17;1.17;;;;;;;;;;5131653;27;20300;-81
2023/01/23 13:25:08;;;;;;;1.07;0.77;;;;;;;;;;5131843;27;20223;-79
2023/01/23 13:27:28;;;;;;;1.17;0.77;;;;;;;;;;5127286;27;20293;-80
2023/01/23 13:29:57;;;;;;;0.97;0.80;;;;;;;;;;5111454;28;20278;-81
2023/01/23 13:32:28;;;;;;;0.87;0.43;;;;;;;;;;5110356;28;20662;-81
2023/01/23 13:34:56;;;;;;;2.00;1.70;;;;;;;;;;5109804;27;20229;-81
2023/01/23 13:37:49;;;;;;;1.07;1.07;;;;;;;;;;5110803;28;20221;-82
2023/01/23 13:40:18;;;;;;;2.97;0.97;;;;;;;;;;5109745;28;20225;-82
2023/01/23 13:42:45;;;;;;;0.43;0.37;;;;;;;;;;5110336;28;20236;-81
2023/01/23 13:45:25;;;;;;;1.33;0.40;;;;;;;;;;5109815;28;20248;-81
2023/01/23 13:50:44;;;;;;;0.70;0.70;;;;;;;;;;5075768;28;20225;-81
2023/01/23 13:58:56;;;;;;;2.23;1.13;;;;;;;;;;5101711;28;20305;-81
2023/01/23 14:06:58;;;;;;;0.93;0.80;;;;;;;;;;5111034;27;20257;-81
2023/01/23 14:09:26;;;;;;;0.80;0.80;;;;;;;;;;5112505;27;20309;-80
2023/01/23 14:11:56;;;;;;;0.87;0.80;;;;;;;;;;5130382;27;20220;-81
2023/01/23 14:17:07;;;;;;;0.47;0.47;;;;;;;;;;5129028;27;20313;-81
2023/01/23 14:19:33;;;;;;;0.53;0.53;;;;;;;;;;5131710;27;20289;-81
2023/01/23 14:22:04;;;;;;;0.60;0.33;;;;;;;;;;5131323;27;20265;-80
2023/01/23 14:24:41;;;;;;;2.27;0.70;;;;;;;;;;5131463;27;20241;-82
2023/01/23 14:27:09;;;;;;;0.20;0.20;;;;;;;;;;5130720;27;20216;-82
2023/01/23 14:29:36;;;;;;;0.17;0.17;;;;;;;;;;5131355;27;20216;-81
2023/01/23 14:32:02;;;;;;;0.60;0.33;;;;;;;;;;5125222;27;20739;-81
2023/01/23 14:34:29;;;;;;;1.30;0.63;;;;;;;;;;5131102;27;20216;-81
2023/01/23 14:37:00;;;;;;;0.47;0.47;;;;;;;;;;5130205;27;20232;-80
2023/01/23 14:39:29;;;;;;;0.10;0.10;;;;;;;;;;5131041;27;20240;-82
2023/01/23 14:41:57;;;;;;;1.23;1.20;;;;;;;;;;5131995;27;20247;-82
2023/01/23 14:44:26;;;;;;;1.80;0.70;;;;;;;;;;5130208;27;20251;-81
2023/01/23 14:46:54;;;;;;;0.70;0.70;;;;;;;;;;5130109;27;20578;-80
2023/01/23 14:49:23;;;;;;;0.50;0.50;;;;;;;;;;5132987;27;20259;-81
2023/01/23 14:51:54;;;;;;;0.23;0.23;;;;;;;;;;5131083;27;20559;-80
2023/01/23 14:54:21;;;;;;;1.33;1.30;;;;;;;;;;5129791;27;20746;-82
2023/01/23 14:56:50;;;;;;;0.13;0.13;;;;;;;;;;5129325;27;20303;-79
2023/01/23 14:59:19;;;;;;;0.20;0.20;;;;;;;;;;5129838;27;20240;-81
2023/01/23 15:01:53;;;;;;;0.40;0.40;;;;;;;;;;5129537;27;20724;-81
2023/01/23 15:04:20;;;;;;;0.83;0.43;;;;;;;;;;5130377;27;20222;-81
2023/01/23 15:06:50;;;;;;;7.63;1.60;;;;;;;;;;5129921;27;20229;-81
2023/01/23 15:09:18;;;;;;;0.53;0.53;;;;;;;;;;5129661;27;20223;-81
2023/01/23 15:11:45;;;;;;;1.37;1.27;;;;;;;;;;5129002;27;20311;-81
2023/01/23 15:14:24;;;;;;;1.80;0.73;;;;;;;;;;5130164;27;20692;-81
2023/01/23 15:16:51;;;;;;;1.83;0.50;;;;;;;;;;5130812;27;20567;-80
2023/01/23 15:19:20;;;;;;;0.40;0.37;;;;;;;;;;5132240;27;20245;-81
2023/01/23 15:21:46;;;;;;;0.13;0.13;;;;;;;;;;5130567;27;20798;-81
2023/01/23 15:24:20;;;;;;;0.50;0.50;;;;;;;;;;5129575;27;20232;-80